createdAt,value
2019-04-05T00:00:12.303Z,29.07
2019-04-05T00:02:42.316Z,40.15
2019-04-05T00:05:11.073Z,28.90
2019-04-05T00:07:38.767Z,30.10
2019-04-05T00:10:07.256Z,29.77
2019-04-05T00:12:35.624Z,30.15
2019-04-05T00:15:15.312Z,30.27
2019-04-05T00:17:34.431Z,31.30
2019-04-05T00:20:04.894Z,31.62
2019-04-05T00:22:32.206Z,30.55
2019-04-05T00:24:59.973Z,30.68
2019-04-05T00:27:27.842Z,32.98
2019-04-05T00:29:55.621Z,33.83
2019-04-05T00:32:23.360Z,34.80
2019-04-05T00:34:51.230Z,35.05
2019-04-05T00:37:19.096Z,33.65
2019-04-05T00:39:46.962Z,32.95
2019-04-05T00:42:14.827Z,33.83
2019-04-05T00:44:42.589Z,35.48
2019-04-05T00:47:10.354Z,36.05
2019-04-05T00:49:38.116Z,36.73
2019-04-05T00:52:05.979Z,37.65
2019-04-05T00:54:34.975Z,35.65
2019-04-05T00:57:02.841Z,35.25
2019-04-05T00:59:30.602Z,36.08
2019-04-05T01:01:59.089Z,34.73
2019-04-05T01:04:26.948Z,34.53
2019-04-05T01:06:54.711Z,34.50
2019-04-05T01:09:22.476Z,37.08
2019-04-05T01:11:50.239Z,34.98
2019-04-05T01:14:19.646Z,37.08
2019-04-05T01:16:47.410Z,37.35
2019-04-05T01:19:15.173Z,38.02
2019-04-05T01:21:45.082Z,37.98
2019-04-05T01:24:12.643Z,44.85
2019-04-05T01:26:40.812Z,41.02
2019-04-05T01:29:08.683Z,35.80
2019-04-05T01:31:36.446Z,37.33
2019-04-05T01:34:06.566Z,36.60
2019-04-05T01:36:34.551Z,36.48
2019-04-05T01:39:03.931Z,37.95
2019-04-05T01:41:31.598Z,39.83
2019-04-05T01:43:59.358Z,40.10
2019-04-05T01:46:27.939Z,39.38
2019-04-05T01:48:55.732Z,42.98
2019-04-05T01:51:23.474Z,43.48
2019-04-05T01:53:51.847Z,43.40
2019-04-05T01:56:19.626Z,44.77
2019-04-05T01:58:47.373Z,42.45
2019-04-05T02:01:15.656Z,42.55
2019-04-05T02:03:43.207Z,43.25
2019-04-05T02:06:10.971Z,44.33
2019-04-05T02:08:38.739Z,38.20
2019-04-05T02:11:06.499Z,39.35
2019-04-05T02:13:34.462Z,40.20
2019-04-05T02:16:06.654Z,43.55
2019-04-05T02:18:31.943Z,38.85
2019-04-05T02:20:59.705Z,35.70
2019-04-05T02:23:27.463Z,36.17
2019-04-05T02:25:55.335Z,33.83
2019-04-05T02:28:25.395Z,31.25
2019-04-05T02:30:53.325Z,33.35
2019-04-05T02:33:21.081Z,35.30
2019-04-05T02:35:48.949Z,35.23
2019-04-05T02:38:16.928Z,35.28
2019-04-05T02:40:44.677Z,35.03
2019-04-05T02:43:12.445Z,38.78
2019-04-05T02:45:40.209Z,36.83
2019-04-05T02:48:08.186Z,36.17
2019-04-05T02:50:37.071Z,39.33
2019-04-05T02:53:05.444Z,37.55
2019-04-05T02:55:34.132Z,37.17
2019-04-05T02:58:01.897Z,38.05
2019-04-05T03:00:29.763Z,36.25
2019-04-05T03:02:58.135Z,35.80
2019-04-05T03:05:26.467Z,36.53
2019-04-05T03:07:56.939Z,37.90
2019-04-05T03:10:51.122Z,36.98
2019-04-05T03:13:22.883Z,34.50
2019-04-05T03:15:51.560Z,36.17
2019-04-05T03:18:19.124Z,34.20
2019-04-05T03:20:46.883Z,35.30
2019-04-05T03:23:14.661Z,36.45
2019-04-05T03:25:42.526Z,40.45
2019-04-05T03:28:10.277Z,37.53
2019-04-05T03:30:38.148Z,38.48
2019-04-05T03:33:06.360Z,38.45
2019-04-05T03:35:35.010Z,37.35
2019-04-05T03:38:02.984Z,37.13
2019-04-05T03:40:30.851Z,36.58
2019-04-05T03:42:58.603Z,37.58
2019-04-05T03:45:26.470Z,37.28
2019-04-05T03:47:54.442Z,35.73
2019-04-05T03:50:22.403Z,35.73
2019-04-05T03:52:50.273Z,38.05
2019-04-05T03:55:18.853Z,40.55
2019-04-05T03:57:46.924Z,38.73
2019-04-05T04:00:14.998Z,40.63
2019-04-05T04:02:43.168Z,37.08
2019-04-05T04:05:10.933Z,39.78
2019-04-05T04:07:39.006Z,38.48
2019-04-05T04:10:10.763Z,37.75
2019-04-05T04:12:38.825Z,38.53
2019-04-05T04:15:14.020Z,36.38
2019-04-05T04:17:42.140Z,35.20
2019-04-05T04:20:34.890Z,34.83
2019-04-05T04:23:04.394Z,36.70
2019-04-05T04:25:32.565Z,34.92
2019-04-05T04:28:00.650Z,36.13
2019-04-05T04:30:28.610Z,38.08
2019-04-05T04:32:56.570Z,40.92
2019-04-05T04:35:24.548Z,36.53
2019-04-05T04:37:52.613Z,60.23
2019-04-05T04:40:20.698Z,47.48
2019-04-05T04:42:48.652Z,39.55
2019-04-05T04:45:16.621Z,47.10
2019-04-05T04:47:45.202Z,41.30
2019-04-05T04:50:13.285Z,35.03
2019-04-05T04:52:41.266Z,32.65
2019-04-05T04:55:09.820Z,35.92
2019-04-05T04:57:39.137Z,35.78
2019-04-05T05:00:07.298Z,36.38
2019-04-05T05:02:35.672Z,39.90
2019-04-05T05:05:05.794Z,45.55
2019-04-05T05:07:33.350Z,40.17
2019-04-05T05:10:03.434Z,42.78
2019-04-05T05:12:31.234Z,42.33
2019-04-05T05:14:59.505Z,46.98
2019-04-05T05:17:37.683Z,48.83
2019-04-05T05:19:56.786Z,50.45
2019-04-05T05:22:24.962Z,52.40
2019-04-05T05:24:52.921Z,56.77
2019-04-05T05:27:20.987Z,60.58
2019-04-05T05:29:48.953Z,60.50
2019-04-05T05:32:16.923Z,66.45
2019-04-05T05:34:44.894Z,60.43
2019-04-05T05:37:12.967Z,59.33
2019-04-05T05:39:41.039Z,57.48
2019-04-05T05:42:09.000Z,55.75
2019-04-05T05:44:36.969Z,55.80
2019-04-05T05:47:05.043Z,58.45
2019-04-05T05:49:33.008Z,57.27
2019-04-05T05:52:00.877Z,57.45
2019-04-05T05:54:30.289Z,59.83
2019-04-05T05:56:58.146Z,57.27
2019-04-05T05:59:29.677Z,55.83
2019-04-05T06:01:56.028Z,61.18
2019-04-05T06:04:23.897Z,52.35
2019-04-05T06:06:51.961Z,59.45
2019-04-05T06:09:19.941Z,50.63
2019-04-05T06:11:48.006Z,48.10
2019-04-05T06:14:16.070Z,52.88
2019-04-05T06:16:46.497Z,45.60
2019-04-05T06:19:14.466Z,47.03
2019-04-05T06:21:42.539Z,46.25
2019-04-05T06:24:10.606Z,48.63
2019-04-05T06:26:38.542Z,47.33
2019-04-05T06:29:06.446Z,46.20
2019-04-05T06:31:34.414Z,45.05
2019-04-05T06:34:02.380Z,44.45
2019-04-05T06:36:30.857Z,42.25
2019-04-05T06:38:58.783Z,41.20
2019-04-05T06:41:26.796Z,40.20
2019-04-05T06:43:54.761Z,38.40
2019-04-05T06:46:22.736Z,37.17
2019-04-05T06:48:50.701Z,31.97
2019-04-05T06:51:19.486Z,36.28
2019-04-05T06:53:47.865Z,36.80
2019-04-05T06:56:15.741Z,36.08
2019-04-05T06:58:46.225Z,36.60
2019-04-05T07:01:13.514Z,36.58
2019-04-05T07:03:41.176Z,33.15
2019-04-05T07:06:09.150Z,35.25
2019-04-05T07:08:37.124Z,32.45
2019-04-05T07:11:05.034Z,35.25
2019-04-05T07:13:33.051Z,27.75
2019-04-05T07:16:01.023Z,26.05
2019-04-05T07:18:35.577Z,24.92
2019-04-05T07:20:59.004Z,21.68
2019-04-05T07:23:27.068Z,20.25
2019-04-05T07:25:55.149Z,21.40
2019-04-05T07:28:25.146Z,19.73
2019-04-05T07:30:53.025Z,19.65
2019-04-05T07:33:20.992Z,23.30
2019-04-05T07:35:49.172Z,18.02
2019-04-05T07:38:17.235Z,19.27
2019-04-05T07:40:44.998Z,19.23
2019-04-05T07:43:13.271Z,23.27
2019-04-05T07:45:41.343Z,18.17
2019-04-05T07:48:09.426Z,18.00
2019-04-05T07:50:38.308Z,16.70
2019-04-05T07:53:06.792Z,17.67
2019-04-05T07:55:34.858Z,16.77
2019-04-05T07:58:02.826Z,14.75
2019-04-05T08:00:43.795Z,13.00
2019-04-05T08:03:12.070Z,15.83
2019-04-05T08:05:39.840Z,13.93
2019-04-05T08:08:11.470Z,13.88
2019-04-05T08:10:39.359Z,14.03
2019-04-05T08:13:07.578Z,14.38
2019-04-05T08:15:35.608Z,12.98
2019-04-05T08:18:03.571Z,14.20
2019-04-05T08:20:31.537Z,14.43
2019-04-05T08:22:59.609Z,13.80
2019-04-05T08:25:27.886Z,13.20
2019-04-05T08:27:55.547Z,13.20
2019-04-05T08:30:23.518Z,15.78
2019-04-05T08:32:51.452Z,14.95
2019-04-05T08:35:19.663Z,13.85
2019-04-05T08:37:47.728Z,12.98
2019-04-05T08:40:16.316Z,13.28
2019-04-05T08:42:44.586Z,12.78
2019-04-05T08:45:12.559Z,12.63
2019-04-05T08:47:40.457Z,12.82
2019-04-05T08:50:08.697Z,13.35
2019-04-05T08:52:36.666Z,13.35
2019-04-05T08:55:05.352Z,13.35
2019-04-05T08:57:33.116Z,13.65
2019-04-05T09:00:01.095Z,13.15
2019-04-05T09:02:29.462Z,14.25
2019-04-05T09:04:57.332Z,13.65
2019-04-05T09:07:25.401Z,14.68
2019-04-05T09:09:53.468Z,13.60
2019-04-05T09:12:21.533Z,13.58
2019-04-05T09:14:49.605Z,13.80
2019-04-05T09:17:17.374Z,14.07
2019-04-05T09:19:45.444Z,13.40
2019-04-05T09:22:13.407Z,12.73
2019-04-05T09:24:41.479Z,12.53
2019-04-05T09:27:09.553Z,12.15
2019-04-05T09:29:37.415Z,12.73
2019-04-05T09:32:05.486Z,13.18
2019-04-05T09:34:33.566Z,12.40
2019-04-05T09:37:01.636Z,12.95
2019-04-05T09:39:29.810Z,12.13
2019-04-05T09:41:57.780Z,12.05
2019-04-05T09:44:25.839Z,11.60
2019-04-05T09:46:53.811Z,12.40
2019-04-05T09:49:21.774Z,11.60
2019-04-05T09:51:49.956Z,12.33
2019-04-05T09:54:18.599Z,11.70
2019-04-05T09:56:47.421Z,11.68
2019-04-05T09:59:15.393Z,11.48
2019-04-05T10:01:43.810Z,12.37
2019-04-05T10:04:11.636Z,11.97
2019-04-05T10:06:39.711Z,12.73
2019-04-05T10:09:08.185Z,12.68
2019-04-05T10:11:36.476Z,12.05
2019-04-05T10:14:04.634Z,11.90
2019-04-05T10:16:32.609Z,11.70
2019-04-05T10:19:00.575Z,12.58
2019-04-05T10:21:28.549Z,11.33
2019-04-05T10:23:56.409Z,11.55
2019-04-05T10:26:24.480Z,11.43
2019-04-05T10:28:52.553Z,11.73
2019-04-05T10:31:20.415Z,11.80
2019-04-05T10:33:48.384Z,13.72
2019-04-05T10:36:16.462Z,12.07
2019-04-05T10:38:44.628Z,10.90
2019-04-05T10:41:12.539Z,11.65
2019-04-05T10:43:40.561Z,12.68
2019-04-05T10:46:08.736Z,12.30
2019-04-05T10:48:36.912Z,12.35
2019-04-05T10:51:04.977Z,11.12
2019-04-05T10:53:33.871Z,12.18
2019-04-05T10:56:01.638Z,13.22
2019-04-05T10:58:29.603Z,13.03
2019-04-05T11:00:58.095Z,13.18
2019-04-05T11:03:25.950Z,13.75
2019-04-05T11:05:53.815Z,14.07
2019-04-05T11:08:21.782Z,14.43
2019-04-05T11:10:49.754Z,13.68
2019-04-05T11:13:17.924Z,12.53
2019-04-05T11:15:45.791Z,13.10
2019-04-05T11:18:13.759Z,12.45
2019-04-05T11:20:42.341Z,13.80
2019-04-05T11:23:11.129Z,14.53
2019-04-05T11:25:39.197Z,12.90
2019-04-05T11:28:07.274Z,14.58
2019-04-05T11:30:45.076Z,13.05
2019-04-05T11:33:13.151Z,13.30
2019-04-05T11:35:41.524Z,13.58
2019-04-05T11:38:10.304Z,13.50
2019-04-05T11:40:38.383Z,14.10
2019-04-05T11:43:07.059Z,14.55
2019-04-05T11:45:35.245Z,13.78
2019-04-05T11:48:04.332Z,13.18
2019-04-05T11:50:34.732Z,13.62
2019-04-05T11:53:02.619Z,14.15
2019-04-05T11:55:31.304Z,14.07
2019-04-05T11:57:59.585Z,13.50
2019-04-05T12:00:29.606Z,12.73
2019-04-05T12:03:09.813Z,13.93
2019-04-05T12:05:37.620Z,13.53
2019-04-05T12:08:05.482Z,13.00
2019-04-05T12:10:33.760Z,13.85
2019-04-05T12:13:01.831Z,14.15
2019-04-05T12:15:29.702Z,14.15
2019-04-05T12:17:57.661Z,15.08
2019-04-05T12:20:25.839Z,14.40
2019-04-05T12:22:53.911Z,16.10
2019-04-05T12:25:21.876Z,14.23
2019-04-05T12:27:49.874Z,14.65
2019-04-05T12:30:19.670Z,14.50
2019-04-05T12:32:48.924Z,14.95
2019-04-05T12:35:17.228Z,15.30
2019-04-05T12:37:50.615Z,14.47
2019-04-05T12:40:14.957Z,15.23
2019-04-05T12:42:43.899Z,15.55
2019-04-05T12:45:14.666Z,14.38
2019-04-05T12:47:45.345Z,14.40
2019-04-05T12:50:14.163Z,13.80
2019-04-05T12:52:41.616Z,14.68
2019-04-05T12:55:10.396Z,14.95
2019-04-05T12:57:38.282Z,14.33
2019-04-05T13:00:13.195Z,15.20
2019-04-05T13:02:40.250Z,14.85
2019-04-05T13:05:09.439Z,16.62
2019-04-05T13:07:37.715Z,15.85
2019-04-05T13:10:05.794Z,17.27
2019-04-05T13:12:33.959Z,15.50
2019-04-05T13:15:12.215Z,17.25
2019-04-05T13:17:32.154Z,17.42
2019-04-05T13:20:00.874Z,16.23
2019-04-05T13:22:32.392Z,15.93
2019-04-05T13:24:59.138Z,16.95
2019-04-05T13:27:28.834Z,15.48
2019-04-05T13:29:56.699Z,18.10
2019-04-05T13:32:25.139Z,15.83
2019-04-05T13:34:53.530Z,16.85
2019-04-05T13:37:22.658Z,16.35
2019-04-05T13:39:50.798Z,16.42
2019-04-05T13:42:18.898Z,16.20
2019-04-05T13:44:46.884Z,16.70
2019-04-05T13:47:14.837Z,16.40
2019-04-05T13:49:42.804Z,15.30
2019-04-05T13:52:12.021Z,16.05
2019-04-05T13:54:41.001Z,15.43
2019-04-05T13:57:11.386Z,16.23
2019-04-05T13:59:38.367Z,14.63
2019-04-05T14:02:06.972Z,15.53
2019-04-05T14:04:34.915Z,15.03
2019-04-05T14:07:03.837Z,15.58
2019-04-05T14:09:31.794Z,16.85
2019-04-05T14:11:59.879Z,16.52
2019-04-05T14:14:28.518Z,15.75
2019-04-05T14:16:57.016Z,16.05
2019-04-05T14:19:25.099Z,19.90
2019-04-05T14:21:53.741Z,16.02
2019-04-05T14:24:23.480Z,15.70
2019-04-05T14:26:51.751Z,15.65
2019-04-05T14:29:20.334Z,16.42
2019-04-05T14:31:48.420Z,16.67
2019-04-05T14:34:16.304Z,16.05
2019-04-05T14:36:44.758Z,15.70
2019-04-05T14:39:12.927Z,15.65
2019-04-05T14:41:40.787Z,16.05
2019-04-05T14:44:08.758Z,16.12
2019-04-05T14:46:38.353Z,16.40
2019-04-05T14:49:06.433Z,15.85
2019-04-05T14:51:34.610Z,17.37
2019-04-05T14:54:03.524Z,16.17
2019-04-05T14:56:32.079Z,16.07
2019-04-05T14:59:00.152Z,17.20
2019-04-05T15:01:28.630Z,15.95
2019-04-05T15:03:56.301Z,20.48
2019-04-05T15:06:26.506Z,20.45
2019-04-05T15:08:53.864Z,20.32
2019-04-05T15:11:21.832Z,16.73
2019-04-05T15:13:49.906Z,17.60
2019-04-05T15:16:17.964Z,17.48
2019-04-05T15:18:46.017Z,18.48
2019-04-05T15:21:13.909Z,17.10
2019-04-05T15:23:45.254Z,19.77
2019-04-05T15:26:11.897Z,16.67
2019-04-05T15:28:39.660Z,18.92
2019-04-05T15:31:07.626Z,19.27
2019-04-05T15:33:36.413Z,18.98
2019-04-05T15:36:04.589Z,17.75
2019-04-05T15:38:32.560Z,18.75
2019-04-05T15:41:00.735Z,16.93
2019-04-05T15:43:28.814Z,17.42
2019-04-05T15:45:56.770Z,19.37
2019-04-05T15:48:24.737Z,23.32
2019-04-05T15:50:55.879Z,17.50
2019-04-05T15:53:22.725Z,20.32
2019-04-05T15:55:50.488Z,22.82
2019-04-05T15:58:18.458Z,24.02
2019-04-05T16:00:46.935Z,26.00
2019-04-05T16:03:14.706Z,36.40
2019-04-05T16:05:42.671Z,37.70
2019-04-05T16:08:10.759Z,55.12
2019-04-05T16:10:38.704Z,45.17
2019-04-05T16:13:08.270Z,36.83
2019-04-05T16:15:36.175Z,33.20
2019-04-05T16:18:04.466Z,38.63
2019-04-05T16:20:32.323Z,53.35
2019-04-05T16:23:00.286Z,56.70
2019-04-05T16:25:28.362Z,52.20
2019-04-05T16:27:56.441Z,50.45
2019-04-05T16:30:24.504Z,39.80
2019-04-05T16:32:52.365Z,40.28
2019-04-05T16:35:20.540Z,42.17
2019-04-05T16:37:48.622Z,35.55
2019-04-05T16:40:16.584Z,36.05
2019-04-05T16:42:44.556Z,35.35
2019-04-05T16:45:12.516Z,35.23
2019-04-05T16:47:40.792Z,34.60
2019-04-05T16:50:09.062Z,50.73
2019-04-05T16:52:44.761Z,40.63
2019-04-05T16:55:07.252Z,37.78
2019-04-05T16:57:35.336Z,38.42
2019-04-05T17:00:06.169Z,38.60
2019-04-05T17:02:34.745Z,38.10
2019-04-05T17:05:04.358Z,39.92
2019-04-05T17:07:32.113Z,30.00
2019-04-05T17:09:59.878Z,30.68
2019-04-05T17:12:27.952Z,35.63
2019-04-05T17:14:56.119Z,32.85
2019-04-05T17:17:23.988Z,30.45
2019-04-05T17:19:52.062Z,28.83
2019-04-05T17:22:20.135Z,28.90
2019-04-05T17:24:48.005Z,29.55
2019-04-05T17:27:16.167Z,31.70
2019-04-05T17:29:44.039Z,36.83
2019-04-05T17:32:12.000Z,34.65
2019-04-05T17:34:40.071Z,33.33
2019-04-05T17:37:09.270Z,34.60
2019-04-05T17:39:37.443Z,36.90
2019-04-05T17:42:05.413Z,41.95
2019-04-05T17:44:33.449Z,44.63
2019-04-05T17:47:01.553Z,41.65
2019-04-05T17:49:29.724Z,46.58
2019-04-05T17:51:57.799Z,35.17
2019-04-05T17:54:26.385Z,36.85
2019-04-05T17:56:54.252Z,47.55
2019-04-05T17:59:22.217Z,48.30
2019-04-05T18:01:50.800Z,29.45
2019-04-05T18:04:18.975Z,39.83
2019-04-05T18:06:47.144Z,43.70
2019-04-05T18:09:15.141Z,35.80
2019-04-05T18:11:43.202Z,38.00
2019-04-05T18:14:11.255Z,31.52
2019-04-05T18:16:39.325Z,30.02
2019-04-05T18:19:07.397Z,33.42
2019-04-05T18:21:36.295Z,35.17
2019-04-05T18:24:04.355Z,37.00
2019-04-05T18:26:32.329Z,39.95
2019-04-05T18:29:00.404Z,33.90
2019-04-05T18:31:28.575Z,38.88
2019-04-05T18:33:56.537Z,33.70
2019-04-05T18:36:24.514Z,33.98
2019-04-05T18:38:52.578Z,36.42
2019-04-05T18:41:20.440Z,33.67
2019-04-05T18:43:48.412Z,37.30
2019-04-05T18:46:16.383Z,31.95
2019-04-05T18:48:46.292Z,35.45
2019-04-05T18:51:14.465Z,30.40
2019-04-05T18:53:42.849Z,31.17
2019-04-05T18:56:10.602Z,33.88
2019-04-05T18:58:39.039Z,44.13
2019-04-05T19:01:07.464Z,38.90
2019-04-05T19:03:35.432Z,35.20
2019-04-05T19:06:04.219Z,30.02
2019-04-05T19:08:39.420Z,29.23
2019-04-05T19:11:02.012Z,29.82
2019-04-05T19:13:29.965Z,28.07
2019-04-05T19:15:58.140Z,27.67
2019-04-05T19:18:26.221Z,28.38
2019-04-05T19:20:54.280Z,26.55
2019-04-05T19:23:22.356Z,29.00
2019-04-05T19:25:50.318Z,27.02
2019-04-05T19:28:18.595Z,25.45
2019-04-05T19:48:31.095Z,41.75
2019-04-05T19:50:45.261Z,42.62
2019-04-05T19:53:13.842Z,39.50
2019-04-05T19:55:41.723Z,39.65
2019-04-05T19:58:09.781Z,41.63
2019-04-05T20:00:38.569Z,44.30
2019-04-05T20:03:06.543Z,35.28
2019-04-05T20:05:34.915Z,41.88
2019-04-05T20:08:02.915Z,52.98
2019-04-05T20:10:30.857Z,79.03
2019-04-05T20:12:59.030Z,65.22
2019-04-05T20:15:26.892Z,76.75
2019-04-05T20:17:54.861Z,71.10
2019-04-05T20:20:23.030Z,72.35
2019-04-05T20:22:50.896Z,78.12
2019-04-05T20:25:19.051Z,74.87
2019-04-05T20:27:47.048Z,75.05
2019-04-05T20:30:15.025Z,77.40
2019-04-05T20:32:43.079Z,80.72
2019-04-05T20:35:11.146Z,81.28
2019-04-05T20:37:41.375Z,83.03
2019-04-05T20:40:10.259Z,91.55
2019-04-05T20:42:38.333Z,90.53
2019-04-05T20:45:06.199Z,88.20
2019-04-05T20:47:34.271Z,86.53
2019-04-05T20:50:03.880Z,90.70
2019-04-05T20:52:31.844Z,88.35
2019-04-05T20:54:59.708Z,88.55
2019-04-05T20:57:27.676Z,93.58
2019-04-05T20:59:55.545Z,98.30
2019-04-05T21:02:24.025Z,98.20
2019-04-05T21:04:52.092Z,107.22
2019-04-05T21:07:20.064Z,104.00
2019-04-05T21:09:48.107Z,95.50
2019-04-05T21:12:15.996Z,91.25
2019-04-05T21:14:44.071Z,93.42
2019-04-05T21:17:12.048Z,55.40
2019-04-05T21:19:40.106Z,54.25
2019-04-05T21:22:09.106Z,59.15
2019-04-05T21:24:37.122Z,75.20
2019-04-05T21:27:05.139Z,65.55
2019-04-05T21:29:33.313Z,67.80
2019-04-05T21:32:01.283Z,76.25
2019-04-05T21:34:29.263Z,84.47
2019-04-05T21:36:57.426Z,76.40
2019-04-05T21:39:25.524Z,76.20
2019-04-05T21:41:53.255Z,81.63
2019-04-05T21:44:21.223Z,68.52
2019-04-05T21:46:49.295Z,76.28
2019-04-05T21:49:17.264Z,83.25
2019-04-05T21:51:45.343Z,86.45
2019-04-05T21:54:15.252Z,83.60
2019-04-05T21:56:45.459Z,83.07
2019-04-05T21:59:13.131Z,87.62
2019-04-05T22:01:42.434Z,92.72
2019-04-05T22:04:10.397Z,96.15
2019-04-05T22:06:38.471Z,91.37
2019-04-05T22:09:07.877Z,96.17
2019-04-05T22:11:36.353Z,96.63
2019-04-05T22:14:04.834Z,98.40
2019-04-05T22:16:32.906Z,96.75
2019-04-05T22:19:01.901Z,86.32
2019-04-05T22:21:29.861Z,93.65
2019-04-05T22:23:57.935Z,82.92
2019-04-05T22:26:25.804Z,84.83
2019-04-05T22:28:53.771Z,80.35
2019-04-05T22:31:21.743Z,78.97
2019-04-05T22:33:49.605Z,85.22
2019-04-05T22:36:17.568Z,90.77
2019-04-05T22:38:45.547Z,93.78
2019-04-05T22:41:13.422Z,94.97
2019-04-05T22:43:41.274Z,92.88
2019-04-05T22:46:09.256Z,92.80
2019-04-05T22:48:37.212Z,90.25
2019-04-05T22:51:05.789Z,91.37
2019-04-05T22:53:34.373Z,90.65
2019-04-05T22:56:02.651Z,91.67
2019-04-05T22:58:30.615Z,90.92
2019-04-05T23:00:59.612Z,88.90
2019-04-05T23:03:27.375Z,86.17
2019-04-05T23:05:56.261Z,72.72
2019-04-05T23:08:24.440Z,60.03
2019-04-05T23:10:52.303Z,69.55
2019-04-05T23:13:20.070Z,69.07
2019-04-05T23:15:47.937Z,71.50
2019-04-05T23:18:15.715Z,68.52
2019-04-05T23:20:43.661Z,69.72
2019-04-05T23:23:11.426Z,68.57
2019-04-05T23:25:39.294Z,69.20
2019-04-05T23:28:07.058Z,62.85
2019-04-05T23:30:34.821Z,65.85
2019-04-05T23:33:02.795Z,52.10
2019-04-05T23:35:30.757Z,47.98
2019-04-05T23:37:58.904Z,53.17
2019-04-05T23:40:29.667Z,61.68
2019-04-05T23:42:57.428Z,58.38
2019-04-05T23:45:25.289Z,54.65
2019-04-05T23:47:53.369Z,57.98
2019-04-05T23:50:21.226Z,61.73
2019-04-05T23:52:49.816Z,58.25
2019-04-05T23:55:17.879Z,61.63
2019-04-05T23:57:45.819Z,59.98
